Terminal Aerodrome Forecast
Issued by NWS Caribou, ME

Home | Current Version | Previous Version | Text Only | Print | Product List | Glossary On
Versions: 1 2 3 4 5 6 7 8 9 10 11 12 13 14 15 16 17 18
064
FTUS41 KCAR 260811 AAD
TAFCAR
TAF AMD
KCAR 260811Z 2608/2706 34009KT P6SM OVC009
     FM261300 33011KT P6SM SCT025
     FM270400 11005KT P6SM BKN015
     FM270500 12006KT P6SM BKN008=

USA.gov is the U.S. government's official web portal to all federal, state and local government web resources and services.